sensor_id;sensor_type;location;lat;lon;timestamp;pressure;altitude;pressure_sealevel;temperature;humidity
8501;BME280;4288;48.484;10.024;2023-04-29T00:00:25;95303.78;;;18.68;59.62
8501;BME280;4288;48.484;10.024;2023-04-29T00:02:53;95296.88;;;18.67;59.74
8501;BME280;4288;48.484;10.024;2023-04-29T00:05:22;95296.88;;;18.67;59.98
8501;BME280;4288;48.484;10.024;2023-04-29T00:07:49;95295.38;;;18.67;59.41
8501;BME280;4288;48.484;10.024;2023-04-29T00:10:17;95285.28;;;18.67;59.82
8501;BME280;4288;48.484;10.024;2023-04-29T00:12:44;95288.44;;;18.65;59.62
8501;BME280;4288;48.484;10.024;2023-04-29T00:15:12;95287.66;;;18.65;59.90
8501;BME280;4288;48.484;10.024;2023-04-29T00:17:39;95293.09;;;18.65;60.19
8501;BME280;4288;48.484;10.024;2023-04-29T00:20:08;95287.66;;;18.65;60.20
8501;BME280;4288;48.484;10.024;2023-04-29T00:22:37;95290.81;;;18.63;60.11
8501;BME280;4288;48.484;10.024;2023-04-29T00:25:05;95284.63;;;18.63;59.85
8501;BME280;4288;48.484;10.024;2023-04-29T00:27:33;95290.81;;;18.63;60.16
8501;BME280;4288;48.484;10.024;2023-04-29T00:30:00;95292.03;;;18.62;60.28
8501;BME280;4288;48.484;10.024;2023-04-29T00:32:28;95294.72;;;18.62;60.00
8501;BME280;4288;48.484;10.024;2023-04-29T00:34:56;95293.97;;;18.62;59.37
8501;BME280;4288;48.484;10.024;2023-04-29T00:37:23;95284.31;;;18.61;60.61
8501;BME280;4288;48.484;10.024;2023-04-29T00:39:52;95293.97;;;18.62;60.23
8501;BME280;4288;48.484;10.024;2023-04-29T00:42:20;95296.34;;;18.60;60.11
8501;BME280;4288;48.484;10.024;2023-04-29T00:44:47;95292.88;;;18.59;60.35
8501;BME280;4288;48.484;10.024;2023-04-29T00:47:14;95294.81;;;18.59;59.91
8501;BME280;4288;48.484;10.024;2023-04-29T00:49:42;95295.59;;;18.59;59.68
8501;BME280;4288;48.484;10.024;2023-04-29T00:52:11;95296.78;;;18.58;60.16
8501;BME280;4288;48.484;10.024;2023-04-29T00:54:39;95296.03;;;18.58;60.01
8501;BME280;4288;48.484;10.024;2023-04-29T00:57:08;95291.06;;;18.56;60.25
8501;BME280;4288;48.484;10.024;2023-04-29T00:59:36;95289.84;;;18.57;60.08
8501;BME280;4288;48.484;10.024;2023-04-29T01:02:04;95291.06;;;18.56;60.17
8501;BME280;4288;48.484;10.024;2023-04-29T01:04:31;95298.41;;;18.56;59.89
8501;BME280;4288;48.484;10.024;2023-04-29T01:07:06;95289.97;;;18.54;60.40
8501;BME280;4288;48.484;10.024;2023-04-29T01:09:46;95296.16;;;18.54;60.00
8501;BME280;4288;48.484;10.024;2023-04-29T01:12:22;95300.81;;;18.54;59.82
8501;BME280;4288;48.484;10.024;2023-04-29T01:14:58;95298.09;;;18.54;60.53
8501;BME280;4288;48.484;10.024;2023-04-29T01:17:33;95300.03;;;18.53;60.18
8501;BME280;4288;48.484;10.024;2023-04-29T01:20:04;95304.38;;;18.51;60.11
8501;BME280;4288;48.484;10.024;2023-04-29T01:22:32;95304.38;;;18.51;59.95
8501;BME280;4288;48.484;10.024;2023-04-29T01:25:01;95307.06;;;18.51;60.35
8501;BME280;4288;48.484;10.024;2023-04-29T01:27:32;95298.22;;;18.50;60.50
8501;BME280;4288;48.484;10.024;2023-04-29T01:30:06;95305.56;;;18.50;60.18
8501;BME280;4288;48.484;10.024;2023-04-29T01:32:43;95315.63;;;18.49;60.24
8501;BME280;4288;48.484;10.024;2023-04-29T01:35:25;95316.41;;;18.50;60.42
8501;BME280;4288;48.484;10.024;2023-04-29T01:38:00;95312.19;;;18.49;59.91
8501;BME280;4288;48.484;10.024;2023-04-29T01:40:36;95310.66;;;18.48;60.00
8501;BME280;4288;48.484;10.024;2023-04-29T01:43:05;95315.31;;;18.47;60.00
8501;BME280;4288;48.484;10.024;2023-04-29T01:45:38;95314.56;;;18.47;60.57
8501;BME280;4288;48.484;10.024;2023-04-29T01:48:07;95310.34;;;18.46;60.27
8501;BME280;4288;48.484;10.024;2023-04-29T01:50:35;95313.03;;;18.46;60.46
8501;BME280;4288;48.484;10.024;2023-04-29T01:53:03;95306.88;;;18.45;60.48
8501;BME280;4288;48.484;10.024;2023-04-29T01:55:31;95306.13;;;18.45;60.09
8501;BME280;4288;48.484;10.024;2023-04-29T01:57:59;95301.91;;;18.44;59.65
8501;BME280;4288;48.484;10.024;2023-04-29T02:00:26;95302.66;;;18.44;60.06
8501;BME280;4288;48.484;10.024;2023-04-29T02:02:53;95303.09;;;18.43;60.00
8501;BME280;4288;48.484;10.024;2023-04-29T02:05:21;95297.69;;;18.43;60.28
8501;BME280;4288;48.484;10.024;2023-04-29T02:07:48;95300.03;;;18.41;59.62
8501;BME280;4288;48.484;10.024;2023-04-29T02:10:15;95291.16;;;18.40;59.64
8501;BME280;4288;48.484;10.024;2023-04-29T02:12:44;95300.03;;;18.41;60.02
8501;BME280;4288;48.484;10.024;2023-04-29T02:15:12;95298.50;;;18.40;59.77
8501;BME280;4288;48.484;10.024;2023-04-29T02:17:39;95295.03;;;18.39;59.95
8501;BME280;4288;48.484;10.024;2023-04-29T02:20:07;95297.75;;;18.39;59.83
8501;BME280;4288;48.484;10.024;2023-04-29T02:22:35;95298.97;;;18.38;59.44
8501;BME280;4288;48.484;10.024;2023-04-29T02:25:02;95300.13;;;18.37;59.88
8501;BME280;4288;48.484;10.024;2023-04-29T02:27:30;95300.91;;;18.38;60.21
8501;BME280;4288;48.484;10.024;2023-04-29T02:29:58;95308.25;;;18.37;60.12
8501;BME280;4288;48.484;10.024;2023-04-29T02:32:26;95310.22;;;18.37;59.51
8501;BME280;4288;48.484;10.024;2023-04-29T02:34:53;95307.94;;;18.35;59.35
8501;BME280;4288;48.484;10.024;2023-04-29T02:37:20;95306.44;;;18.34;59.45
8501;BME280;4288;48.484;10.024;2023-04-29T02:39:48;95299.06;;;18.35;59.92
8501;BME280;4288;48.484;10.024;2023-04-29T02:42:15;95304.94;;;18.33;59.83
8501;BME280;4288;48.484;10.024;2023-04-29T02:44:43;95302.97;;;18.34;59.80
8501;BME280;4288;48.484;10.024;2023-04-29T02:47:11;95306.88;;;18.33;59.61
8501;BME280;4288;48.484;10.024;2023-04-29T02:49:39;95312.28;;;18.33;59.66
8501;BME280;4288;48.484;10.024;2023-04-29T02:52:06;95308.03;;;18.32;59.90
8501;BME280;4288;48.484;10.024;2023-04-29T02:54:34;95305.34;;;18.32;60.08
8501;BME280;4288;48.484;10.024;2023-04-29T02:57:01;95306.53;;;18.31;59.64
8501;BME280;4288;48.484;10.024;2023-04-29T02:59:28;95311.19;;;18.30;60.20
8501;BME280;4288;48.484;10.024;2023-04-29T03:01:56;95302.31;;;18.30;60.07
8501;BME280;4288;48.484;10.024;2023-04-29T03:04:24;95304.28;;;18.29;59.49
8501;BME280;4288;48.484;10.024;2023-04-29T03:06:54;95301.56;;;18.29;59.65
8501;BME280;4288;48.484;10.024;2023-04-29T03:09:22;95306.97;;;18.29;59.91
8501;BME280;4288;48.484;10.024;2023-04-29T03:11:49;95312.81;;;18.28;59.54
8501;BME280;4288;48.484;10.024;2023-04-29T03:14:18;95305.13;;;18.26;59.86
8501;BME280;4288;48.484;10.024;2023-04-29T03:16:45;95305.13;;;18.26;59.24
8501;BME280;4288;48.484;10.024;2023-04-29T03:19:12;95308.59;;;18.27;59.66
8501;BME280;4288;48.484;10.024;2023-04-29T03:21:41;95303.63;;;18.25;59.27
8501;BME280;4288;48.484;10.024;2023-04-29T03:24:09;95302.09;;;18.24;59.38
8501;BME280;4288;48.484;10.024;2023-04-29T03:26:36;95308.28;;;18.25;59.40
8501;BME280;4288;48.484;10.024;2023-04-29T03:29:04;95293.66;;;18.22;59.14
8501;BME280;4288;48.484;10.024;2023-04-29T03:31:31;95304.47;;;18.22;59.82
8501;BME280;4288;48.484;10.024;2023-04-29T03:33:59;95298.31;;;18.22;59.54
8501;BME280;4288;48.484;10.024;2023-04-29T03:36:26;95292.91;;;18.22;59.10
8501;BME280;4288;48.484;10.024;2023-04-29T03:38:55;95299.50;;;18.21;59.28
8501;BME280;4288;48.484;10.024;2023-04-29T03:41:22;95298.75;;;18.20;59.46
8501;BME280;4288;48.484;10.024;2023-04-29T03:43:50;95303.38;;;18.20;59.57
8501;BME280;4288;48.484;10.024;2023-04-29T03:46:18;95296.47;;;18.19;59.27
8501;BME280;4288;48.484;10.024;2023-04-29T03:48:45;95298.41;;;18.18;59.44
8501;BME280;4288;48.484;10.024;2023-04-29T03:51:12;95297.69;;;18.18;59.55
8501;BME280;4288;48.484;10.024;2023-04-29T03:53:40;95305.03;;;18.17;59.35
8501;BME280;4288;48.484;10.024;2023-04-29T03:56:09;95300.81;;;18.16;58.92
8501;BME280;4288;48.484;10.024;2023-04-29T03:58:36;95298.84;;;18.17;59.72
8501;BME280;4288;48.484;10.024;2023-04-29T04:01:03;95301.56;;;18.17;59.77
8501;BME280;4288;48.484;10.024;2023-04-29T04:03:31;95298.53;;;18.15;59.05
8501;BME280;4288;48.484;10.024;2023-04-29T04:05:58;95301.69;;;18.13;59.13
8501;BME280;4288;48.484;10.024;2023-04-29T04:08:26;95302.44;;;18.14;59.09
8501;BME280;4288;48.484;10.024;2023-04-29T04:10:53;95301.69;;;18.13;59.02
8501;BME280;4288;48.484;10.024;2023-04-29T04:13:22;95294.75;;;18.12;58.77
8501;BME280;4288;48.484;10.024;2023-04-29T04:15:49;95299.41;;;18.12;58.82
8501;BME280;4288;48.484;10.024;2023-04-29T04:18:17;95300.59;;;18.11;59.52
8501;BME280;4288;48.484;10.024;2023-04-29T04:20:44;95299.81;;;18.10;59.41
8501;BME280;4288;48.484;10.024;2023-04-29T04:23:12;95296.38;;;18.10;59.23
8501;BME280;4288;48.484;10.024;2023-04-29T04:25:44;95310.31;;;18.08;59.32
8501;BME280;4288;48.484;10.024;2023-04-29T04:28:12;95308.38;;;18.09;58.30
8501;BME280;4288;48.484;10.024;2023-04-29T04:30:41;95305.34;;;18.07;59.32
8501;BME280;4288;48.484;10.024;2023-04-29T04:33:08;95312.28;;;18.08;59.47
8501;BME280;4288;48.484;10.024;2023-04-29T04:35:36;95312.28;;;18.08;59.31
8501;BME280;4288;48.484;10.024;2023-04-29T04:38:04;95317.38;;;18.06;59.20
8501;BME280;4288;48.484;10.024;2023-04-29T04:40:32;95316.59;;;18.05;59.38
8501;BME280;4288;48.484;10.024;2023-04-29T04:43:00;95316.59;;;18.05;59.17
8501;BME280;4288;48.484;10.024;2023-04-29T04:45:28;95327.41;;;18.05;59.50
8501;BME280;4288;48.484;10.024;2023-04-29T04:47:57;95318.97;;;18.03;58.96
8501;BME280;4288;48.484;10.024;2023-04-29T04:50:27;95320.94;;;18.03;59.79
8501;BME280;4288;48.484;10.024;2023-04-29T04:52:55;95326.34;;;18.03;59.37
8501;BME280;4288;48.484;10.024;2023-04-29T04:55:22;95332.19;;;18.01;59.84
8501;BME280;4288;48.484;10.024;2023-04-29T04:57:49;95330.25;;;18.02;59.48
8501;BME280;4288;48.484;10.024;2023-04-29T05:00:17;95337.59;;;18.01;59.66
8501;BME280;4288;48.484;10.024;2023-04-29T05:02:44;95338.03;;;18.00;59.34
8501;BME280;4288;48.484;10.024;2023-04-29T05:05:13;95338.03;;;18.00;59.58
8501;BME280;4288;48.484;10.024;2023-04-29T05:07:40;95342.56;;;18.03;59.08
8501;BME280;4288;48.484;10.024;2023-04-29T05:10:09;95343.00;;;18.01;59.07
8501;BME280;4288;48.484;10.024;2023-04-29T05:12:37;95349.59;;;18.00;59.17
8501;BME280;4288;48.484;10.024;2023-04-29T05:15:05;95356.97;;;18.00;59.53
8501;BME280;4288;48.484;10.024;2023-04-29T05:17:32;95346.56;;;17.98;59.27
8501;BME280;4288;48.484;10.024;2023-04-29T05:20:01;95354.69;;;17.98;59.41
8501;BME280;4288;48.484;10.024;2023-04-29T05:22:30;95355.44;;;17.99;59.56
8501;BME280;4288;48.484;10.024;2023-04-29T05:24:57;95358.13;;;17.99;58.86
8501;BME280;4288;48.484;10.024;2023-04-29T05:27:28;95360.84;;;17.99;59.59
8501;BME280;4288;48.484;10.024;2023-04-29T05:29:55;95363.97;;;17.97;59.50
8501;BME280;4288;48.484;10.024;2023-04-29T05:32:23;95357.81;;;17.97;59.75
8501;BME280;4288;48.484;10.024;2023-04-29T05:34:51;95367.13;;;17.96;60.41
8501;BME280;4288;48.484;10.024;2023-04-29T05:37:18;95363.22;;;17.97;59.57
8501;BME280;4288;48.484;10.024;2023-04-29T05:39:47;95362.03;;;17.98;60.44
8501;BME280;4288;48.484;10.024;2023-04-29T05:42:14;95369.72;;;17.99;60.53
8501;BME280;4288;48.484;10.024;2023-04-29T05:44:42;95365.06;;;18.00;60.62
8501;BME280;4288;48.484;10.024;2023-04-29T05:47:09;95373.94;;;18.00;61.05
8501;BME280;4288;48.484;10.024;2023-04-29T05:49:36;95374.69;;;18.01;61.63
8501;BME280;4288;48.484;10.024;2023-04-29T05:52:05;95384.78;;;18.00;61.23
8501;BME280;4288;48.484;10.024;2023-04-29T05:54:32;95385.50;;;18.01;61.09
8501;BME280;4288;48.484;10.024;2023-04-29T05:57:02;95388.22;;;18.01;60.58
8501;BME280;4288;48.484;10.024;2023-04-29T05:59:30;95383.13;;;18.03;61.08
8501;BME280;4288;48.484;10.024;2023-04-29T06:01:58;95391.25;;;18.03;61.18
8501;BME280;4288;48.484;10.024;2023-04-29T06:04:26;95393.94;;;18.03;60.98
8501;BME280;4288;48.484;10.024;2023-04-29T06:06:54;95398.63;;;18.02;61.32
8501;BME280;4288;48.484;10.024;2023-04-29T06:09:23;95399.03;;;18.01;61.16
8501;BME280;4288;48.484;10.024;2023-04-29T06:11:51;95404.75;;;18.03;61.20
8501;BME280;4288;48.484;10.024;2023-04-29T06:14:19;95401.63;;;18.04;61.38
8501;BME280;4288;48.484;10.024;2023-04-29T06:16:47;95406.28;;;18.04;61.56
8501;BME280;4288;48.484;10.024;2023-04-29T06:19:14;95404.75;;;18.03;60.86
8501;BME280;4288;48.484;10.024;2023-04-29T06:21:41;95410.59;;;18.01;61.24
8501;BME280;4288;48.484;10.024;2023-04-29T06:24:09;95410.59;;;18.01;60.55
8501;BME280;4288;48.484;10.024;2023-04-29T06:26:36;95407.13;;;18.01;60.09
8501;BME280;4288;48.484;10.024;2023-04-29T06:29:03;95410.28;;;17.99;60.36
8501;BME280;4288;48.484;10.024;2023-04-29T06:31:32;95411.03;;;18.00;60.35
8501;BME280;4288;48.484;10.024;2023-04-29T06:34:00;95416.03;;;18.01;61.04
8501;BME280;4288;48.484;10.024;2023-04-29T06:36:27;95427.06;;;17.94;62.72
8501;BME280;4288;48.484;10.024;2023-04-29T06:38:54;95421.97;;;17.96;60.82
8501;BME280;4288;48.484;10.024;2023-04-29T06:41:22;95421.53;;;17.98;60.66
8501;BME280;4288;48.484;10.024;2023-04-29T06:43:50;95423.81;;;17.99;61.83
8501;BME280;4288;48.484;10.024;2023-04-29T06:46:17;95425.75;;;17.99;60.48
8501;BME280;4288;48.484;10.024;2023-04-29T06:48:46;95426.50;;;17.99;60.77
8501;BME280;4288;48.484;10.024;2023-04-29T06:51:13;95426.50;;;17.99;60.96
8501;BME280;4288;48.484;10.024;2023-04-29T06:53:41;95429.97;;;18.00;60.73
8501;BME280;4288;48.484;10.024;2023-04-29T06:56:09;95431.16;;;17.99;60.57
8501;BME280;4288;48.484;10.024;2023-04-29T06:58:36;95433.13;;;17.98;60.67
8501;BME280;4288;48.484;10.024;2023-04-29T07:01:04;95438.09;;;18.00;61.42
8501;BME280;4288;48.484;10.024;2023-04-29T07:03:33;95441.97;;;17.99;61.41
8501;BME280;4288;48.484;10.024;2023-04-29T07:06:02;95441.22;;;17.98;62.06
8501;BME280;4288;48.484;10.024;2023-04-29T07:08:29;95441.56;;;18.00;63.18
8501;BME280;4288;48.484;10.024;2023-04-29T07:10:57;95446.63;;;17.98;60.52
8501;BME280;4288;48.484;10.024;2023-04-29T07:13:25;95443.16;;;17.98;62.43
8501;BME280;4288;48.484;10.024;2023-04-29T07:15:53;95449.34;;;17.98;61.13
8501;BME280;4288;48.484;10.024;2023-04-29T07:18:20;95454.00;;;17.98;61.05
8501;BME280;4288;48.484;10.024;2023-04-29T07:20:48;95455.50;;;17.99;61.26
8501;BME280;4288;48.484;10.024;2023-04-29T07:23:19;95455.50;;;17.99;60.89
8501;BME280;4288;48.484;10.024;2023-04-29T07:25:46;95457.47;;;17.98;60.70
8501;BME280;4288;48.484;10.024;2023-04-29T07:28:14;95460.91;;;17.99;60.91
8501;BME280;4288;48.484;10.024;2023-04-29T07:30:41;95460.50;;;18.00;61.53
8501;BME280;4288;48.484;10.024;2023-04-29T07:33:08;95458.53;;;18.01;61.78
8501;BME280;4288;48.484;10.024;2023-04-29T07:35:36;95463.94;;;18.01;61.59
8501;BME280;4288;48.484;10.024;2023-04-29T07:38:03;95465.13;;;18.00;60.89
8501;BME280;4288;48.484;10.024;2023-04-29T07:40:32;95465.78;;;18.04;61.04
8501;BME280;4288;48.484;10.024;2023-04-29T07:42:59;95463.09;;;18.04;61.17
8501;BME280;4288;48.484;10.024;2023-04-29T07:45:30;95465.78;;;18.04;61.41
8501;BME280;4288;48.484;10.024;2023-04-29T07:47:57;95471.22;;;18.04;60.97
8501;BME280;4288;48.484;10.024;2023-04-29T07:50:24;95476.63;;;18.04;60.51
8501;BME280;4288;48.484;10.024;2023-04-29T07:52:52;95477.06;;;18.02;60.69
8501;BME280;4288;48.484;10.024;2023-04-29T07:55:22;95475.50;;;18.01;61.11
8501;BME280;4288;48.484;10.024;2023-04-29T07:57:53;95478.22;;;18.01;60.68
8501;BME280;4288;48.484;10.024;2023-04-29T08:00:21;95482.88;;;18.01;60.42
8501;BME280;4288;48.484;10.024;2023-04-29T08:02:50;95481.38;;;18.00;61.06
8501;BME280;4288;48.484;10.024;2023-04-29T08:05:18;95488.28;;;18.01;60.81
8501;BME280;4288;48.484;10.024;2023-04-29T08:07:46;95487.53;;;18.00;60.71
8501;BME280;4288;48.484;10.024;2023-04-29T08:10:13;95492.50;;;18.02;60.67
8501;BME280;4288;48.484;10.024;2023-04-29T08:12:44;95490.97;;;18.01;60.62
8501;BME280;4288;48.484;10.024;2023-04-29T08:15:12;95494.78;;;18.03;60.62
8501;BME280;4288;48.484;10.024;2023-04-29T08:17:40;95493.28;;;18.02;61.31
8501;BME280;4288;48.484;10.024;2023-04-29T08:20:08;95494.78;;;18.03;60.79
8501;BME280;4288;48.484;10.024;2023-04-29T08:22:36;95502.03;;;18.06;60.41
8501;BME280;4288;48.484;10.024;2023-04-29T08:25:03;95503.91;;;18.09;61.31
8501;BME280;4288;48.484;10.024;2023-04-29T08:27:31;95494.69;;;18.07;60.99
8501;BME280;4288;48.484;10.024;2023-04-29T08:29:58;95497.38;;;18.07;61.26
8501;BME280;4288;48.484;10.024;2023-04-29T08:32:27;95498.59;;;18.06;61.70
8501;BME280;4288;48.484;10.024;2023-04-29T08:34:55;95507.44;;;18.06;61.04
8501;BME280;4288;48.484;10.024;2023-04-29T08:37:22;95503.34;;;18.02;62.18
8501;BME280;4288;48.484;10.024;2023-04-29T08:39:49;95500.63;;;18.02;60.49
8501;BME280;4288;48.484;10.024;2023-04-29T08:42:24;95496.63;;;18.06;60.65
8501;BME280;4288;48.484;10.024;2023-04-29T08:44:59;95503.03;;;18.12;60.76
8501;BME280;4288;48.484;10.024;2023-04-29T08:47:29;95500.66;;;18.14;60.16
8501;BME280;4288;48.484;10.024;2023-04-29T08:50:00;95500.25;;;18.16;60.52
8501;BME280;4288;48.484;10.024;2023-04-29T08:52:29;95495.81;;;18.22;61.66
8501;BME280;4288;48.484;10.024;2023-04-29T08:54:57;95505.44;;;18.23;61.92
8501;BME280;4288;48.484;10.024;2023-04-29T08:57:25;95500.81;;;18.23;61.46
8501;BME280;4288;48.484;10.024;2023-04-29T08:59:54;95500.25;;;18.28;61.45
8501;BME280;4288;48.484;10.024;2023-04-29T09:02:22;95495.63;;;18.29;61.26
8501;BME280;4288;48.484;10.024;2023-04-29T09:04:59;95504.56;;;18.26;61.75
8501;BME280;4288;48.484;10.024;2023-04-29T09:07:31;95493.44;;;18.24;61.31
8501;BME280;4288;48.484;10.024;2023-04-29T09:09:59;95502.75;;;18.23;61.34
8501;BME280;4288;48.484;10.024;2023-04-29T09:12:27;95508.59;;;18.21;61.21
8501;BME280;4288;48.484;10.024;2023-04-29T09:14:55;95511.28;;;18.21;61.14
8501;BME280;4288;48.484;10.024;2023-04-29T09:17:38;95511.28;;;18.21;62.04
8501;BME280;4288;48.484;10.024;2023-04-29T09:20:26;95511.28;;;18.21;61.44
8501;BME280;4288;48.484;10.024;2023-04-29T09:22:56;95522.44;;;18.23;61.94
8501;BME280;4288;48.484;10.024;2023-04-29T09:25:23;95513.69;;;18.32;63.60
8501;BME280;4288;48.484;10.024;2023-04-29T09:27:52;95510.13;;;18.35;63.83
8501;BME280;4288;48.484;10.024;2023-04-29T09:30:20;95517.28;;;18.41;63.60
8501;BME280;4288;48.484;10.024;2023-04-29T09:33:04;95513.31;;;18.46;64.59
8501;BME280;4288;48.484;10.024;2023-04-29T09:35:34;95519.25;;;18.41;64.26
8501;BME280;4288;48.484;10.024;2023-04-29T09:38:09;95522.81;;;18.38;64.19
8501;BME280;4288;48.484;10.024;2023-04-29T09:40:37;95518.16;;;18.38;63.89
8501;BME280;4288;48.484;10.024;2023-04-29T09:43:11;95517.06;;;18.36;63.48
8501;BME280;4288;48.484;10.024;2023-04-29T09:45:41;95521.28;;;18.37;64.28
8501;BME280;4288;48.484;10.024;2023-04-29T09:48:10;95518.47;;;18.40;64.89
8501;BME280;4288;48.484;10.024;2023-04-29T09:50:40;95522.22;;;18.46;63.40
8501;BME280;4288;48.484;10.024;2023-04-29T09:53:10;95521.44;;;18.46;64.25
8501;BME280;4288;48.484;10.024;2023-04-29T09:55:58;95518.63;;;18.49;63.75
8501;BME280;4288;48.484;10.024;2023-04-29T09:58:27;95525.56;;;18.50;63.67
8501;BME280;4288;48.484;10.024;2023-04-29T10:00:57;95525.34;;;18.57;64.59
8501;BME280;4288;48.484;10.024;2023-04-29T10:03:27;95518.44;;;18.56;64.01
8501;BME280;4288;48.484;10.024;2023-04-29T10:06:00;95520.91;;;18.51;64.51
8501;BME280;4288;48.484;10.024;2023-04-29T10:08:29;95529.56;;;18.46;64.22
8501;BME280;4288;48.484;10.024;2023-04-29T10:10:59;95528.06;;;18.45;65.64
8501;BME280;4288;48.484;10.024;2023-04-29T10:13:27;95536.59;;;18.43;63.90
8501;BME280;4288;48.484;10.024;2023-04-29T10:16:02;95529.66;;;18.42;62.66
8501;BME280;4288;48.484;10.024;2023-04-29T10:18:36;95537.78;;;18.42;62.99
8501;BME280;4288;48.484;10.024;2023-04-29T10:21:08;95533.47;;;18.45;63.22
8501;BME280;4288;48.484;10.024;2023-04-29T10:23:37;95521.78;;;18.48;64.25
8501;BME280;4288;48.484;10.024;2023-04-29T10:26:06;95530.78;;;18.57;63.52
8501;BME280;4288;48.484;10.024;2023-04-29T10:28:38;95516.63;;;18.66;66.43
8501;BME280;4288;48.484;10.024;2023-04-29T10:31:07;95521.47;;;18.71;65.14
8501;BME280;4288;48.484;10.024;2023-04-29T10:33:35;95514.56;;;18.70;65.52
8501;BME280;4288;48.484;10.024;2023-04-29T10:36:03;95523.19;;;18.65;65.84
8501;BME280;4288;48.484;10.024;2023-04-29T10:38:35;95510.66;;;18.71;66.38
8501;BME280;4288;48.484;10.024;2023-04-29T10:41:09;95512.19;;;18.72;65.31
8501;BME280;4288;48.484;10.024;2023-04-29T10:43:41;95514.56;;;18.70;68.33
8501;BME280;4288;48.484;10.024;2023-04-29T10:46:19;95519.22;;;18.70;68.00
8501;BME280;4288;48.484;10.024;2023-04-29T10:48:47;95511.19;;;18.66;67.31
8501;BME280;4288;48.484;10.024;2023-04-29T10:51:34;95511.84;;;18.70;67.62
8501;BME280;4288;48.484;10.024;2023-04-29T10:54:09;95502.66;;;18.80;69.34
8501;BME280;4288;48.484;10.024;2023-04-29T10:56:42;95503.28;;;18.84;69.37
8501;BME280;4288;48.484;10.024;2023-04-29T10:59:10;95497.34;;;18.89;70.29
8501;BME280;4288;48.484;10.024;2023-04-29T11:01:44;95490.31;;;18.92;69.24
8501;BME280;4288;48.484;10.024;2023-04-29T11:04:12;95486.72;;;18.95;68.84
8501;BME280;4288;48.484;10.024;2023-04-29T11:06:41;95489.75;;;18.97;69.53
8501;BME280;4288;48.484;10.024;2023-04-29T11:09:19;95495.16;;;18.97;70.08
8501;BME280;4288;48.484;10.024;2023-04-29T11:11:58;95493.75;;;18.92;69.08
8501;BME280;4288;48.484;10.024;2023-04-29T11:14:31;95494.00;;;18.98;69.05
8501;BME280;4288;48.484;10.024;2023-04-29T11:17:00;95495.81;;;19.01;68.61
8501;BME280;4288;48.484;10.024;2023-04-29T11:19:31;95486.81;;;19.04;68.60
8501;BME280;4288;48.484;10.024;2023-04-29T11:22:24;95497.25;;;19.05;68.91
8501;BME280;4288;48.484;10.024;2023-04-29T11:24:54;95496.34;;;19.08;68.70
8501;BME280;4288;48.484;10.024;2023-04-29T11:27:23;95496.69;;;19.10;68.73
8501;BME280;4288;48.484;10.024;2023-04-29T11:29:55;95490.81;;;19.12;68.53
8501;BME280;4288;48.484;10.024;2023-04-29T11:32:24;95495.72;;;19.17;68.53
8501;BME280;4288;48.484;10.024;2023-04-29T11:34:52;95502.75;;;19.14;68.10
8501;BME280;4288;48.484;10.024;2023-04-29T11:37:23;95504.38;;;19.12;68.60
8501;BME280;4288;48.484;10.024;2023-04-29T11:39:56;95497.13;;;19.09;69.31
8501;BME280;4288;48.484;10.024;2023-04-29T11:42:25;95495.06;;;19.13;68.03
8501;BME280;4288;48.484;10.024;2023-04-29T11:44:53;95499.59;;;19.16;67.57
8501;BME280;4288;48.484;10.024;2023-04-29T11:47:26;95502.97;;;19.20;67.37
8501;BME280;4288;48.484;10.024;2023-04-29T11:50:00;95504.91;;;19.19;64.94
8501;BME280;4288;48.484;10.024;2023-04-29T11:52:28;95493.31;;;19.19;65.32
8501;BME280;4288;48.484;10.024;2023-04-29T11:54:58;95497.31;;;19.14;66.03
8501;BME280;4288;48.484;10.024;2023-04-29T11:57:25;95494.19;;;19.16;65.43
8501;BME280;4288;48.484;10.024;2023-04-29T11:59:53;95491.16;;;19.14;64.19
8501;BME280;4288;48.484;10.024;2023-04-29T12:02:21;95495.19;;;19.09;65.54
8501;BME280;4288;48.484;10.024;2023-04-29T12:04:49;95499.84;;;19.09;62.92
8501;BME280;4288;48.484;10.024;2023-04-29T12:07:16;95493.00;;;19.04;61.55
8501;BME280;4288;48.484;10.024;2023-04-29T12:09:44;95503.06;;;19.04;61.95
8501;BME280;4288;48.484;10.024;2023-04-29T12:12:14;95505.38;;;19.05;61.95
8501;BME280;4288;48.484;10.024;2023-04-29T12:14:42;95504.28;;;19.03;61.49
8501;BME280;4288;48.484;10.024;2023-04-29T12:17:10;95507.75;;;19.03;61.03
8501;BME280;4288;48.484;10.024;2023-04-29T12:19:38;95505.78;;;19.04;61.88
8501;BME280;4288;48.484;10.024;2023-04-29T12:22:07;95508.94;;;19.02;62.38
8501;BME280;4288;48.484;10.024;2023-04-29T12:24:35;95506.09;;;19.06;61.57
8501;BME280;4288;48.484;10.024;2023-04-29T12:27:03;95503.06;;;19.04;61.49
8501;BME280;4288;48.484;10.024;2023-04-29T12:29:32;95493.00;;;19.04;61.70
8501;BME280;4288;48.484;10.024;2023-04-29T12:32:00;95499.50;;;19.07;62.26
8501;BME280;4288;48.484;10.024;2023-04-29T12:34:29;95498.31;;;19.08;62.61
8501;BME280;4288;48.484;10.024;2023-04-29T12:36:58;95496.69;;;19.10;62.38
8501;BME280;4288;48.484;10.024;2023-04-29T12:39:26;95508.72;;;19.09;62.78
8501;BME280;4288;48.484;10.024;2023-04-29T12:41:56;95510.66;;;19.09;62.63
8501;BME280;4288;48.484;10.024;2023-04-29T12:44:23;95513.38;;;19.09;63.02
8501;BME280;4288;48.484;10.024;2023-04-29T12:46:52;95508.41;;;19.07;63.15
8501;BME280;4288;48.484;10.024;2023-04-29T12:49:22;95505.69;;;19.07;63.03
8501;BME280;4288;48.484;10.024;2023-04-29T12:51:50;95518.91;;;19.05;63.29
8501;BME280;4288;48.484;10.024;2023-04-29T12:54:17;95523.88;;;18.94;62.51
8501;BME280;4288;48.484;10.024;2023-04-29T12:56:45;95508.94;;;18.64;62.55
8501;BME280;4288;48.484;10.024;2023-04-29T12:59:12;95513.88;;;18.53;63.61
8501;BME280;4288;48.484;10.024;2023-04-29T13:01:40;95514.63;;;18.54;63.69
8501;BME280;4288;48.484;10.024;2023-04-29T13:04:08;95512.69;;;18.54;64.12
8501;BME280;4288;48.484;10.024;2023-04-29T13:06:37;95510.50;;;18.49;64.41
8501;BME280;4288;48.484;10.024;2023-04-29T13:09:06;95521.78;;;18.48;64.60
8501;BME280;4288;48.484;10.024;2023-04-29T13:11:37;95512.22;;;18.43;65.07
8501;BME280;4288;48.484;10.024;2023-04-29T13:14:04;95511.13;;;18.41;64.87
8501;BME280;4288;48.484;10.024;2023-04-29T13:16:32;95507.66;;;18.40;65.36
8501;BME280;4288;48.484;10.024;2023-04-29T13:19:00;95508.09;;;18.39;65.42